AXCGGARGarmin  id=247  GPS 72 Software Version 2.50|2140330771
HFDTE171210
HFPLTPilot:UNREGISTERED
HFTZOTimezone:1
HFSITSite:
HPGTYGliderType:
HPGIDGliderID:
HFDTM100DATUM:WGS-1984
HFCIDCOMPETITIONID:
HFCCLCOMPETITIONCLASS:
LXCG     ICON:C:\Program Files\CompeGPS\symbols\IconsPlay\cronos.ico
LXCG     COLOR:000119000
I00
B1431233747951N00053971WA0000000168
B1431293747953N00053969WA0000000168
B1431353747915N00053888WA0000000175
B1431413747921N00053903WA0000000177
B1431473747933N00053924WA0000000183
B1431533747933N00053938WA0000000188
B1431593747935N00053951WA0000000191
B1432053747929N00053961WA0000000192
B1432113747925N00053972WA0000000193
B1432173747925N00053985WA0000000193
B1432233747918N00053973WA0000000194
B1432293747918N00053934WA0000000197
B1432353747907N00053912WA0000000200
B1432413747905N00053919WA0000000202
B1432473747897N00053925WA0000000207
B1432533747893N00053934WA0000000208
B1432593747889N00053943WA0000000207
B1433053747883N00053958WA0000000206
B1433113747879N00053972WA0000000204
B1433173747873N00053988WA0000000201
B1433233747872N00054002WA0000000197
B1433293747865N00053999WA0000000195
B1433353747875N00053953WA0000000193
B1433413747907N00053918WA0000000192
B1433473747919N00053877WA0000000195
B1433533747923N00053886WA0000000197
B1433593747933N00053904WA0000000198
B1434053747937N00053916WA0000000203
B1434113747937N00053934WA0000000207
B1434173747934N00053943WA0000000211
B1434233747931N00053953WA0000000213
B1434293747922N00053960WA0000000218
B1434353747916N00053966WA0000000218
B1434413747909N00053978WA0000000219
B1434473747903N00053988WA0000000222
B1434533747899N00053994WA0000000221
B1434593747894N00054003WA0000000221
B1435053747890N00054013WA0000000220
B1435113747886N00054024WA0000000221
B1435173747880N00054033WA0000000221
B1435233747876N00054043WA0000000218
B1435293747874N00054056WA0000000217
B1435353747872N00054069WA0000000214
B1435413747871N00054082WA0000000212
B1435473747872N00054094WA0000000211
B1435533747872N00054107WA0000000211
B1435593747876N00054120WA0000000211
B1436053747887N00054134WA0000000212
B1436113747895N00054151WA0000000213
B1436173747895N00054165WA0000000223
B1436233747906N00054182WA0000000227
B1436293747906N00054194WA0000000232
B1436353747919N00054212WA0000000237
B1436413747912N00054211WA0000000243
B1436473747906N00054204WA0000000250
B1436533747901N00054206WA0000000252
B1436593747899N00054213WA0000000254
B1437053747900N00054227WA0000000260
B1437113747899N00054236WA0000000259
B1437173747900N00054249WA0000000258
B1437233747902N00054264WA0000000259
B1437293747902N00054277WA0000000259
B1437353747900N00054289WA0000000258
B1437413747900N00054308WA0000000255
B1437473747901N00054326WA0000000252
B1437533747902N00054346WA0000000247
B1437593747904N00054368WA0000000240
B1438053747909N00054391WA0000000236
B1438113747907N00054407WA0000000233
B1438173747910N00054421WA0000000229
B1438233747922N00054440WA0000000229
B1438293747944N00054455WA0000000231
B1438353747965N00054471WA0000000232
B1438413747995N00054481WA0000000234
B1438473748018N00054492WA0000000239
B1438533748031N00054511WA0000000242
B1438593748044N00054528WA0000000245
B1439053748044N00054547WA0000000247
B1439113748049N00054566WA0000000253
B1439173748051N00054588WA0000000255
B1439233748053N00054611WA0000000258
B1439293748061N00054635WA0000000262
B1439353748068N00054660WA0000000268
B1439413748075N00054686WA0000000276
B1439473748075N00054701WA0000000283
B1439533748070N00054695WA0000000288
B1439593748074N00054655WA0000000289
B1440053748079N00054615WA0000000296
B1440113748079N00054577WA0000000301
B1440173748071N00054549WA0000000311
B1440233748063N00054518WA0000000319
B1440293748049N00054511WA0000000332
B1440353748050N00054519WA0000000335
B1440413748061N00054535WA0000000339
B1440473748059N00054542WA0000000342
B1440533748059N00054556WA0000000346
B1440593748060N00054563WA0000000350
B1441053748061N00054579WA0000000351
B1441113748066N00054595WA0000000356
B1441173748070N00054610WA0000000357
B1441233748074N00054625WA0000000357
B1441293748075N00054640WA0000000360
B1441353748073N00054648WA0000000360
B1441413748067N00054625WA0000000358
B1441473748069N00054585WA0000000358
B1441533748069N00054549WA0000000358
B1441593748061N00054535WA0000000359
B1442053748067N00054544WA0000000363
B1442113748063N00054540WA0000000364
B1442173748056N00054532WA0000000366
B1442233748052N00054542WA0000000367
B1442293748053N00054550WA0000000370
B1442353748054N00054563WA0000000373
B1442413748052N00054573WA0000000374
B1442473748052N00054585WA0000000375
B1442533748050N00054599WA0000000373
B1442593748049N00054615WA0000000373
B1443053748048N00054627WA0000000375
B1443113748046N00054638WA0000000373
B1443173748043N00054653WA0000000373
B1443233748042N00054662WA0000000374
B1443293748038N00054678WA0000000371
B1443353748034N00054693WA0000000368
B1443413748029N00054713WA0000000364
B1443473748027N00054734WA0000000363
B1443533748023N00054750WA0000000362
B1443593748017N00054763WA0000000361
B1444053748014N00054779WA0000000363
B1444113748011N00054787WA0000000360
B1444173748009N00054800WA0000000359
B1444233748010N00054815WA0000000356
B1444293748009N00054830WA0000000352
B1444353748010N00054847WA0000000348
B1444413748009N00054863WA0000000346
B1444473748009N00054875WA0000000347
B1444533748008N00054885WA0000000343
B1444593748008N00054899WA0000000342
B1445053748007N00054911WA0000000341
B1445113748009N00054928WA0000000338
B1445173748011N00054946WA0000000336
B1445233748011N00054964WA0000000334
B1445293748017N00054984WA0000000333
B1445353748021N00054998WA0000000334
B1445413748023N00055008WA0000000329
B1445473748029N00055025WA0000000330
B1445533748032N00055035WA0000000329
B1445593748036N00055051WA0000000330
B1446053748040N00055062WA0000000331
B1446113748046N00055079WA0000000331
B1446173748051N00055094WA0000000328
B1446233748057N00055113WA0000000326
B1446293748061N00055130WA0000000323
B1446353748053N00055139WA0000000322
B1446413748045N00055137WA0000000325
B1446473748038N00055129WA0000000324
B1446533748029N00055124WA0000000320
B1446593748018N00055116WA0000000316
B1447053748011N00055097WA0000000315
B1447113748005N00055096WA0000000311
B1447173748023N00055112WA0000000308
B1447233748058N00055090WA0000000303
B1447293748056N00055056WA0000000302
B1447353748045N00055037WA0000000306
B1447413748038N00055016WA0000000313
B1447473748033N00054996WA0000000316
B1447533748028N00054973WA0000000316
B1447593748024N00054943WA0000000313
B1448053748023N00054920WA0000000308
B1448113748018N00054921WA0000000304
B1448173748018N00054931WA0000000302
B1448233748017N00054937WA0000000301
B1448293748010N00054930WA0000000298
B1448353748011N00054895WA0000000298
B1448413748010N00054856WA0000000296
B1448473748015N00054814WA0000000295
B1448533748024N00054773WA0000000297
B1448593748032N00054727WA0000000298
B1449053748040N00054684WA0000000302
B1449113748049N00054637WA0000000310
B1449173748058N00054588WA0000000315
B1449233748063N00054545WA0000000324
B1449293748061N00054516WA0000000330
B1449353748060N00054525WA0000000338
B1449413748059N00054535WA0000000345
B1449473748057N00054536WA0000000349
B1449533748059N00054545WA0000000353
B1449593748059N00054547WA0000000359
B1450053748058N00054545WA0000000364
B1450113748055N00054543WA0000000370
B1450173748054N00054547WA0000000375
B1450233748050N00054545WA0000000377
B1450293748045N00054541WA0000000377
B1450353748047N00054551WA0000000377
B1450413748052N00054557WA0000000379
B1450473748054N00054563WA0000000380
B1450533748050N00054553WA0000000381
B1450593748045N00054536WA0000000383
B1451053748043N00054538WA0000000388
B1451113748041N00054536WA0000000392
B1451173748037N00054533WA0000000393
B1451233748037N00054539WA0000000397
B1451293748037N00054546WA0000000397
B1451353748035N00054554WA0000000399
B1451413748037N00054557WA0000000401
B1451473748035N00054560WA0000000401
B1451533748035N00054565WA0000000404
B1451593748036N00054571WA0000000406
B1452053748037N00054573WA0000000410
B1452113748037N00054571WA0000000412
B1452173748036N00054568WA0000000413
B1452233748036N00054574WA0000000412
B1452293748037N00054579WA0000000413
B1452353748037N00054582WA0000000415
B1452413748035N00054585WA0000000417
B1452473748033N00054593WA0000000418
B1452533748034N00054597WA0000000418
B1452593748031N00054605WA0000000419
B1453053748024N00054609WA0000000420
B1453113748022N00054611WA0000000423
B1453173748020N00054619WA0000000423
B1453233748023N00054626WA0000000425
B1453293748023N00054629WA0000000425
B1453353748024N00054636WA0000000426
B1453413748027N00054640WA0000000428
B1453473748024N00054648WA0000000427
B1453533748023N00054657WA0000000427
B1453593748027N00054669WA0000000427
B1454053748031N00054677WA0000000426
B1454113748031N00054684WA0000000423
B1454173748030N00054691WA0000000422
B1454233748028N00054698WA0000000421
B1454293748027N00054702WA0000000424
B1454353748023N00054709WA0000000420
B1454413748021N00054717WA0000000421
B1454473748016N00054724WA0000000418
B1454533748008N00054728WA0000000417
B1454593748003N00054734WA0000000418
B1455053748002N00054746WA0000000416
B1455113748003N00054755WA0000000414
B1455173748002N00054765WA0000000411
B1455233748003N00054774WA0000000409
B1455293748003N00054788WA0000000407
B1455353748007N00054800WA0000000404
B1455413748009N00054811WA0000000405
B1455473748010N00054823WA0000000402
B1455533748011N00054834WA0000000400
B1455593748013N00054848WA0000000399
B1456053748014N00054860WA0000000398
B1456113748016N00054871WA0000000398
B1456173748020N00054885WA0000000395
B1456233748021N00054897WA0000000393
B1456293748023N00054911WA0000000391
B1456353748024N00054923WA0000000392
B1456413748023N00054931WA0000000392
B1456473748026N00054941WA0000000391
B1456533748028N00054953WA0000000392
B1456593748029N00054959WA0000000392
B1457053748033N00054973WA0000000392
B1457113748036N00054985WA0000000389
B1457173748038N00054997WA0000000392
B1457233748040N00055003WA0000000396
B1457293748039N00055011WA0000000392
B1457353748040N00055022WA0000000395
B1457413748046N00055037WA0000000398
B1457473748049N00055052WA0000000396
B1457533748052N00055067WA0000000395
B1457593748059N00055083WA0000000393
B1458053748065N00055099WA0000000391
B1458113748072N00055115WA0000000388
B1458173748079N00055131WA0000000385
B1458233748085N00055146WA0000000382
B1458293748092N00055161WA0000000379
B1458353748100N00055178WA0000000376
B1458413748106N00055194WA0000000373
B1458473748109N00055208WA0000000369
B1458533748106N00055217WA0000000365
B1458593748100N00055223WA0000000364
B1459053748094N00055224WA0000000363
B1459113748086N00055224WA0000000358
B1459173748077N00055219WA0000000355
B1459233748067N00055215WA0000000353
B1459293748055N00055207WA0000000351
B1459353748044N00055197WA0000000348
B1459413748033N00055190WA0000000345
B1459473748023N00055182WA0000000341
B1459533748012N00055173WA0000000337
B1459593748000N00055165WA0000000332
B1500053747987N00055151WA0000000329
B1500113747973N00055137WA0000000323
B1500173747960N00055123WA0000000320
B1500233747946N00055108WA0000000318
B1500293747933N00055096WA0000000314
B1500353747921N00055086WA0000000312
B1500413747910N00055061WA0000000305
B1500473747905N00055021WA0000000299
B1500533747904N00054976WA0000000294
B1500593747913N00054926WA0000000288
B1501053747925N00054874WA0000000284
B1501113747942N00054826WA0000000285
B1501173747963N00054783WA0000000283
B1501233747983N00054736WA0000000279
B1501293748010N00054695WA0000000278
B1501353748034N00054654WA0000000281
B1501413748052N00054611WA0000000288
B1501473748060N00054565WA0000000292
B1501533748065N00054519WA0000000299
B1501593748057N00054499WA0000000304
B1502053748066N00054509WA0000000313
B1502113748067N00054514WA0000000320
B1502173748061N00054512WA0000000327
B1502233748057N00054516WA0000000332
B1502293748058N00054523WA0000000337
B1502353748059N00054531WA0000000341
B1502413748059N00054539WA0000000346
B1502473748054N00054541WA0000000352
B1502533748047N00054535WA0000000356
B1502593748044N00054536WA0000000362
B1503053748046N00054545WA0000000364
B1503113748047N00054551WA0000000368
B1503173748050N00054557WA0000000372
B1503233748051N00054560WA0000000375
B1503293748051N00054563WA0000000376
B1503353748051N00054571WA0000000376
B1503413748046N00054554WA0000000381
B1503473748041N00054527WA0000000385
B1503533748041N00054529WA0000000388
B1503593748056N00054539WA0000000390
B1504053748055N00054535WA0000000393
B1504113748049N00054512WA0000000399
B1504173748044N00054504WA0000000402
B1504233748051N00054514WA0000000406
B1504293748050N00054512WA0000000411
B1504353748044N00054496WA0000000415
B1504413748043N00054496WA0000000417
B1504473748047N00054506WA0000000420
B1504533748043N00054512WA0000000424
B1504593748040N00054513WA0000000426
B1505053748039N00054515WA0000000426
B1505113748036N00054516WA0000000427
B1505173748036N00054520WA0000000426
B1505233748035N00054526WA0000000424
B1505293748034N00054529WA0000000426
B1505353748028N00054527WA0000000423
B1505413748022N00054527WA0000000422
B1505473748016N00054529WA0000000422
B1505533748013N00054532WA0000000421
B1505593748011N00054533WA0000000420
B1506053748007N00054536WA0000000421
B1506113748003N00054538WA0000000419
B1506173747995N00054542WA0000000415
B1506233747986N00054545WA0000000409
B1506293747974N00054544WA0000000403
B1506353747962N00054544WA0000000397
B1506413747952N00054547WA0000000396
B1506473747944N00054555WA0000000394
B1506533747935N00054562WA0000000388
B1506593747926N00054570WA0000000386
B1507053747915N00054576WA0000000384
B1507113747904N00054581WA0000000380
B1507173747893N00054586WA0000000378
B1507233747883N00054593WA0000000375
B1507293747875N00054600WA0000000368
B1507353747867N00054607WA0000000363
B1507413747860N00054618WA0000000358
B1507473747851N00054626WA0000000354
B1507533747842N00054633WA0000000348
B1507593747833N00054639WA0000000343
B1508053747823N00054646WA0000000336
B1508113747812N00054651WA0000000330
B1508173747801N00054654WA0000000325
B1508233747790N00054656WA0000000318
B1508293747780N00054657WA0000000311
B1508353747769N00054658WA0000000304
B1508413747760N00054662WA0000000297
B1508473747750N00054664WA0000000291
B1508533747738N00054658WA0000000288
B1508593747725N00054649WA0000000283
B1509053747717N00054617WA0000000275
B1509113747715N00054579WA0000000267
B1509173747749N00054542WA0000000261
B1509233747791N00054529WA0000000256
B1509293747831N00054519WA0000000255
B1509353747873N00054509WA0000000251
B1509413747914N00054492WA0000000248
B1509473747955N00054483WA0000000245
B1509533747991N00054485WA0000000248
B1509593748014N00054495WA0000000252
B1510053748027N00054510WA0000000258
B1510113748037N00054526WA0000000264
B1510173748041N00054543WA0000000268
B1510233748045N00054562WA0000000273
B1510293748050N00054579WA0000000281
B1510353748056N00054597WA0000000287
B1510413748061N00054610WA0000000290
B1510473748064N00054628WA0000000299
B1510533748074N00054646WA0000000302
B1510593748085N00054662WA0000000311
B1511053748085N00054661WA0000000314
B1511113748078N00054637WA0000000321
B1511173748074N00054609WA0000000326
B1511233748072N00054574WA0000000329
B1511293748071N00054539WA0000000334
B1511353748064N00054522WA0000000339
B1511413748058N00054521WA0000000340
B1511473748058N00054526WA0000000341
B1511533748059N00054537WA0000000345
B1511593748058N00054544WA0000000346
B1512053748049N00054544WA0000000350
B1512113748043N00054546WA0000000353
B1512173748046N00054557WA0000000355
B1512233748049N00054567WA0000000357
B1512293748049N00054572WA0000000359
B1512353748053N00054582WA0000000358
B1512413748062N00054597WA0000000357
B1512473748063N00054601WA0000000355
B1512533748067N00054612WA0000000352
B1512593748072N00054629WA0000000353
B1513053748071N00054638WA0000000351
B1513113748072N00054651WA0000000352
B1513173748074N00054659WA0000000354
B1513233748069N00054633WA0000000351
B1513293748071N00054589WA0000000351
B1513353748073N00054546WA0000000354
B1513413748068N00054517WA0000000357
B1513473748055N00054503WA0000000359
B1513533748051N00054507WA0000000361
B1513593748052N00054518WA0000000364
B1514053748054N00054531WA0000000360
B1514113748057N00054544WA0000000358
B1514173748056N00054556WA0000000361
B1514233748056N00054564WA0000000363
B1514293748054N00054567WA0000000362
B1514353748053N00054576WA0000000362
B1514413748056N00054590WA0000000362
B1514473748058N00054602WA0000000363
B1514533748060N00054614WA0000000362
B1514593748064N00054628WA0000000362
B1515053748068N00054641WA0000000361
B1515113748073N00054656WA0000000362
B1515173748076N00054673WA0000000361
B1515233748084N00054690WA0000000359
B1515293748096N00054706WA0000000358
B1515353748099N00054719WA0000000356
B1515413748096N00054728WA0000000353
B1515473748092N00054733WA0000000351
B1515533748084N00054724WA0000000349
B1515593748075N00054701WA0000000348
B1516053748066N00054677WA0000000343
B1516113748059N00054648WA0000000347
B1516173748061N00054611WA0000000348
B1516233748062N00054570WA0000000349
B1516293748059N00054534WA0000000349
B1516353748052N00054513WA0000000350
B1516413748047N00054509WA0000000351
B1516473748051N00054521WA0000000350
B1516533748056N00054528WA0000000350
B1516593748053N00054535WA0000000352
B1517053748050N00054529WA0000000352
B1517113748043N00054516WA0000000352
B1517173748052N00054525WA0000000353
B1517233748065N00054536WA0000000354
B1517293748064N00054537WA0000000357
B1517353748057N00054521WA0000000359
B1517413748052N00054507WA0000000360
B1517473748047N00054504WA0000000363
B1517533748050N00054513WA0000000363
B1517593748051N00054513WA0000000364
B1518053748043N00054507WA0000000363
B1518113748036N00054500WA0000000364
B1518173748029N00054491WA0000000364
B1518233748023N00054486WA0000000365
B1518293748018N00054484WA0000000368
B1518353748012N00054479WA0000000362
B1518413748002N00054472WA0000000359
B1518473747992N00054464WA0000000359
B1518533747983N00054453WA0000000359
B1518593747976N00054441WA0000000355
B1519053747969N00054413WA0000000352
B1519113747963N00054379WA0000000350
B1519173747957N00054353WA0000000344
B1519233747949N00054335WA0000000339
B1519293747945N00054319WA0000000336
B1519353747940N00054302WA0000000335
B1519413747937N00054278WA0000000332
B1519473747936N00054253WA0000000329
B1519533747933N00054229WA0000000323
B1519593747929N00054212WA0000000317
B1520053747926N00054199WA0000000313
B1520113747921N00054178WA0000000310
B1520173747918N00054149WA0000000309
B1520233747915N00054120WA0000000305
B1520293747919N00054075WA0000000301
B1520353747922N00054030WA0000000298
B1520413747926N00053986WA0000000293
B1520473747931N00053942WA0000000288
B1520533747938N00053898WA0000000283
B1520593747947N00053850WA0000000277
B1521053747956N00053803WA0000000272
B1521113747965N00053757WA0000000271
B1521173747970N00053714WA0000000270
B1521233747972N00053678WA0000000268
B1521293747970N00053647WA0000000270
B1521353747968N00053625WA0000000272
B1521413747965N00053619WA0000000271
B1521473747961N00053620WA0000000270
B1521533747958N00053621WA0000000271
B1521593747954N00053623WA0000000272
B1522053747953N00053628WA0000000269
B1522113747951N00053636WA0000000268
B1522173747948N00053644WA0000000264
B1522233747945N00053652WA0000000260
B1522293747941N00053662WA0000000258
B1522353747939N00053673WA0000000255
B1522413747937N00053687WA0000000252
B1522473747934N00053702WA0000000247
B1522533747929N00053717WA0000000245
B1522593747924N00053735WA0000000238
B1523053747919N00053753WA0000000234
B1523113747910N00053770WA0000000230
B1523173747904N00053784WA0000000227
B1523233747901N00053801WA0000000221
B1523293747897N00053818WA0000000216
B1523353747892N00053835WA0000000211
B1523413747887N00053848WA0000000205
B1523473747885N00053866WA0000000202
B1523533747892N00053882WA0000000202
B1523593747906N00053899WA0000000201
B1524053747913N00053914WA0000000202
B1524113747925N00053929WA0000000203
B1524173747933N00053944WA0000000204
B1524233747936N00053954WA0000000204
B1524293747937N00053966WA0000000205
B1524353747940N00053978WA0000000205
B1524413747933N00053964WA0000000203
B1524473747934N00053927WA0000000203
B1524533747928N00053905WA0000000203
B1524593747929N00053911WA0000000206
B1525053747928N00053912WA0000000211
B1525113747925N00053914WA0000000212
B1525173747923N00053919WA0000000214
B1525233747918N00053922WA0000000216
B1525293747915N00053924WA0000000217
B1525353747912N00053925WA0000000215
B1525413747910N00053931WA0000000216
B1525473747907N00053936WA0000000214
B1525533747904N00053942WA0000000213
B1525593747901N00053950WA0000000209
B1526053747897N00053955WA0000000207
B1526113747894N00053963WA0000000206
B1526173747890N00053972WA0000000203
B1526233747885N00053980WA0000000200
B1526293747879N00053989WA0000000195
B1526353747871N00054000WA0000000190
B1526413747863N00054008WA0000000184
B1526473747858N00054021WA0000000177
B1526533747851N00054034WA0000000170
B1526593747850N00054049WA0000000164
B1527053747845N00054063WA0000000155
B1527113747841N00054077WA0000000150
B1527173747844N00054090WA0000000143
B1527233747839N00054101WA0000000134
B1527293747829N00054113WA0000000127
B1527353747828N00054129WA0000000123
B1527413747829N00054147WA0000000119
B1527473747816N00054155WA0000000113
B1527533747804N00054117WA0000000107
B1527593747806N00054069WA0000000100
B1528053747810N00054021WA0000000091
B1528113747803N00053980WA0000000083
B1528173747784N00053970WA0000000076
B1528233747781N00053986WA0000000068
B1528293747775N00053998WA0000000064
LXCG     VERSION:5.7
GAA23DE9505B47E17B7D58FD2248B49B1D9CF9B8FD061992C0707A33AF7B49378B063D
GB9FFB9D2BA0C6954A9B4D895B18A8C57396FC0508849A3DF5D7275327701D1AFC41
G4EE24ACF959776882504E5928D61AAEC89191AE184493F3EBDE42C2F3DFC4B33440
G7A50F6A9848BBF96396E98C6B0C65EF51305DB70C2255643040502DA2ED20